createdAt,value
2023-04-28T00:00:20.028Z,8.43
2023-04-28T00:02:48.554Z,10.70
2023-04-28T00:05:15.558Z,9.43
2023-04-28T00:07:42.203Z,13.00
2023-04-28T00:10:09.453Z,8.93
2023-04-28T00:12:36.020Z,10.80
2023-04-28T00:15:03.577Z,6.70
2023-04-28T00:17:30.203Z,8.40
2023-04-28T00:19:57.545Z,9.50
2023-04-28T00:22:24.139Z,12.33
2023-04-28T00:24:51.044Z,14.70
2023-04-28T00:27:17.586Z,9.03
2023-04-28T00:29:44.104Z,11.00
2023-04-28T00:32:10.825Z,9.40
2023-04-28T00:34:37.505Z,9.97
2023-04-28T00:37:04.643Z,7.60
2023-04-28T00:39:31.317Z,10.13
2023-04-28T00:41:57.966Z,11.83
2023-04-28T00:44:24.503Z,7.80
2023-04-28T00:46:51.192Z,8.70
2023-04-28T00:49:17.856Z,10.67
2023-04-28T00:51:44.427Z,11.93
2023-04-28T00:54:14.770Z,11.70
2023-04-28T00:56:42.077Z,8.50
2023-04-28T00:59:08.897Z,9.30
2023-04-28T01:01:36.584Z,9.20
2023-04-28T01:04:03.358Z,8.37
2023-04-28T01:06:30.811Z,8.53
2023-04-28T01:08:57.465Z,8.97
2023-04-28T01:11:24.034Z,8.37
2023-04-28T01:13:50.577Z,9.33
2023-04-28T01:16:17.475Z,8.37
2023-04-28T01:18:48.202Z,9.40
2023-04-28T01:21:15.020Z,8.87
2023-04-28T01:23:41.587Z,11.40
2023-04-28T01:26:08.115Z,9.50
2023-04-28T01:28:34.674Z,9.20
2023-04-28T01:31:01.275Z,11.80
2023-04-28T01:33:27.811Z,8.50
2023-04-28T01:35:58.698Z,16.60
2023-04-28T01:38:25.241Z,7.00
2023-04-28T01:40:51.846Z,12.67
2023-04-28T01:43:18.583Z,9.83
2023-04-28T01:45:45.314Z,10.20
2023-04-28T01:48:11.956Z,7.70
2023-04-28T01:50:38.689Z,10.20
2023-04-28T01:53:05.250Z,8.27
2023-04-28T01:55:31.774Z,10.90
2023-04-28T01:57:58.455Z,10.70
2023-04-28T02:00:25.404Z,8.73
2023-04-28T02:02:52.096Z,9.97
2023-04-28T02:05:18.755Z,9.10
2023-04-28T02:07:45.387Z,13.27
2023-04-28T02:10:13.053Z,10.20
2023-04-28T02:12:41.545Z,14.43
2023-04-28T02:15:09.054Z,9.20
2023-04-28T02:17:42.149Z,10.37
2023-04-28T02:20:09.220Z,8.90
2023-04-28T02:22:35.799Z,10.33
2023-04-28T02:25:02.578Z,9.53
2023-04-28T02:27:29.140Z,8.77
2023-04-28T02:29:55.727Z,9.27
2023-04-28T02:32:22.358Z,9.37
2023-04-28T02:34:54.468Z,8.27
2023-04-28T02:37:21.489Z,12.23
2023-04-28T02:39:48.109Z,11.53
2023-04-28T02:42:14.699Z,17.03
2023-04-28T02:44:41.476Z,14.30
2023-04-28T02:47:08.102Z,6.87
2023-04-28T02:49:34.672Z,9.87
2023-04-28T02:52:01.306Z,10.77
2023-04-28T02:54:27.943Z,10.53
2023-04-28T02:56:58.410Z,11.03
2023-04-28T02:59:25.427Z,10.93
2023-04-28T03:01:52.012Z,11.60
2023-04-28T03:04:18.860Z,12.67
2023-04-28T03:06:45.981Z,14.00
2023-04-28T03:09:12.712Z,8.97
2023-04-28T03:11:39.539Z,11.13
2023-04-28T03:14:06.103Z,14.53
2023-04-28T03:16:33.231Z,9.53
2023-04-28T03:19:00.160Z,16.00
2023-04-28T03:21:27.774Z,13.87
2023-04-28T03:23:54.591Z,14.03
2023-04-28T03:26:21.424Z,13.90
2023-04-28T03:28:48.009Z,10.77
2023-04-28T03:31:14.563Z,11.33
2023-04-28T03:33:42.209Z,11.23
2023-04-28T03:36:09.138Z,17.03
2023-04-28T03:38:35.753Z,15.50
2023-04-28T03:41:02.431Z,13.00
2023-04-28T03:43:29.070Z,12.77
2023-04-28T03:45:55.736Z,14.27
2023-04-28T03:48:22.986Z,13.27
2023-04-28T03:50:49.557Z,14.50
2023-04-28T03:53:16.200Z,13.73
2023-04-28T03:55:42.862Z,16.53
2023-04-28T03:58:09.631Z,13.97
2023-04-28T04:00:36.252Z,15.30
2023-04-28T04:03:02.897Z,17.10
2023-04-28T04:05:29.840Z,17.50
2023-04-28T04:07:56.404Z,14.20
2023-04-28T04:10:22.951Z,16.00
2023-04-28T04:12:49.517Z,20.17
2023-04-28T04:15:16.181Z,14.60
2023-04-28T04:17:42.776Z,19.60
2023-04-28T04:20:09.785Z,17.20
2023-04-28T04:22:36.339Z,16.33
2023-04-28T04:25:03.415Z,12.87
2023-04-28T04:27:30.001Z,15.20
2023-04-28T04:29:56.531Z,17.23
2023-04-28T04:32:23.168Z,18.10
2023-04-28T04:34:49.710Z,17.10
2023-04-28T04:37:16.502Z,14.20
2023-04-28T04:39:43.073Z,16.37
2023-04-28T04:42:23.177Z,17.90
2023-04-28T04:44:51.378Z,18.80
2023-04-28T04:47:18.945Z,22.67
2023-04-28T04:49:45.562Z,18.30
2023-04-28T04:52:12.185Z,20.43
2023-04-28T04:54:38.754Z,19.57
2023-04-28T04:57:05.463Z,16.50
2023-04-28T04:59:32.149Z,17.97
2023-04-28T05:01:58.735Z,18.03
2023-04-28T05:04:25.397Z,20.60
2023-04-28T05:06:52.603Z,21.50
2023-04-28T05:09:19.224Z,22.10
2023-04-28T05:11:46.002Z,16.57
2023-04-28T05:14:12.533Z,22.43
2023-04-28T05:16:39.598Z,19.20
2023-04-28T05:19:06.174Z,21.13
2023-04-28T05:21:33.015Z,16.80
2023-04-28T05:23:59.610Z,18.50
2023-04-28T05:26:26.578Z,21.50
2023-04-28T05:28:53.275Z,19.17
2023-04-28T05:31:19.893Z,21.50
2023-04-28T05:33:46.457Z,20.20
2023-04-28T05:36:13.155Z,21.37
2023-04-28T05:38:39.738Z,21.20
2023-04-28T05:41:06.336Z,24.80
2023-04-28T05:43:32.920Z,20.87
2023-04-28T05:46:00.469Z,22.20
2023-04-28T05:48:27.127Z,22.33
2023-04-28T05:50:53.738Z,23.90
2023-04-28T05:53:20.543Z,20.90
2023-04-28T05:55:47.122Z,23.77
2023-04-28T05:58:13.779Z,20.90
2023-04-28T06:00:40.702Z,19.40
2023-04-28T06:03:11.119Z,21.70
2023-04-28T06:05:38.395Z,23.83
2023-04-28T06:08:05.433Z,23.97
2023-04-28T06:10:32.129Z,20.37
2023-04-28T06:12:58.667Z,21.23
2023-04-28T09:14:33.836Z,14.98
2023-04-28T09:17:00.795Z,11.37
2023-04-28T09:19:37.575Z,8.70
2023-04-28T09:22:14.433Z,9.87
2023-04-28T09:24:52.946Z,11.27
2023-04-28T09:27:29.310Z,10.03
2023-04-28T09:29:56.303Z,10.83
2023-04-28T09:32:24.122Z,12.57
2023-04-28T09:34:53.681Z,9.60
2023-04-28T09:37:21.314Z,13.40
2023-04-28T09:39:52.165Z,10.10
2023-04-28T09:42:32.760Z,8.60
2023-04-28T09:45:00.028Z,9.67
2023-04-28T09:47:26.639Z,11.43
2023-04-28T09:49:57.609Z,10.20
2023-04-28T09:52:24.706Z,9.63
2023-04-28T09:54:53.076Z,16.70
2023-04-28T09:57:20.086Z,12.33
2023-04-28T09:59:51.868Z,13.23
2023-04-28T10:04:07.030Z,10.90
2023-04-28T10:05:10.455Z,9.40
2023-04-28T10:07:38.899Z,13.20
2023-04-28T10:10:06.786Z,10.50
2023-04-28T10:12:33.712Z,10.30
2023-04-28T10:15:00.842Z,11.27
2023-04-28T10:17:29.398Z,14.13
2023-04-28T10:19:57.101Z,9.53
2023-04-28T10:22:47.771Z,9.00
2023-04-28T10:25:37.290Z,18.53
2023-04-28T10:28:09.478Z,11.83
2023-04-28T10:30:37.780Z,10.43
2023-04-28T10:33:24.732Z,8.80
2023-04-28T10:35:51.666Z,10.83
2023-04-28T10:38:23.341Z,16.63
2023-04-28T10:40:51.768Z,11.50
2023-04-28T10:43:30.829Z,10.97
2023-04-28T10:46:00.598Z,9.10
2023-04-28T10:48:30.742Z,13.83
2023-04-28T10:51:15.022Z,10.60
2023-04-28T10:53:44.881Z,10.70
2023-04-28T10:56:25.359Z,10.47
2023-04-28T10:58:56.321Z,11.87
2023-04-28T11:01:25.714Z,12.07
2023-04-28T11:04:00.473Z,13.13
2023-04-28T11:06:28.721Z,10.60
2023-04-28T11:09:00.732Z,18.00
2023-04-28T11:11:28.736Z,9.73
2023-04-28T11:14:15.291Z,13.27
2023-04-28T11:16:54.934Z,10.43
2023-04-28T11:19:24.396Z,13.83
2023-04-28T11:21:52.832Z,16.73
2023-04-28T11:24:20.464Z,15.60
2023-04-28T11:26:47.158Z,15.77
2023-04-28T11:29:15.094Z,16.80
2023-04-28T11:31:50.793Z,14.70
2023-04-28T11:34:21.753Z,20.30
2023-04-28T11:36:48.336Z,17.90
2023-04-28T11:39:15.344Z,15.30
2023-04-28T11:41:44.606Z,15.43
2023-04-28T11:44:11.855Z,15.33
2023-04-28T11:46:55.827Z,14.97
2023-04-28T11:49:28.284Z,18.30
2023-04-28T11:51:55.468Z,16.80
2023-04-28T11:54:24.151Z,19.00
2023-04-28T11:56:51.705Z,16.50
2023-04-28T11:59:20.689Z,17.37
2023-04-28T12:01:51.990Z,20.20
2023-04-28T12:04:28.971Z,20.73
2023-04-28T12:07:06.323Z,19.77
2023-04-28T12:09:35.153Z,20.07
2023-04-28T12:12:04.729Z,19.10
2023-04-28T12:14:36.121Z,21.67
2023-04-28T12:17:02.799Z,22.17
2023-04-28T12:19:29.421Z,21.13
2023-04-28T12:22:06.404Z,24.40
2023-04-28T12:24:35.410Z,23.03
2023-04-28T12:27:16.569Z,23.87
2023-04-28T12:29:46.331Z,22.20
2023-04-28T12:32:14.033Z,22.30
2023-04-28T12:34:41.956Z,23.73
2023-04-28T12:37:08.878Z,25.33
2023-04-28T12:39:40.765Z,25.53
2023-04-28T12:42:07.880Z,23.87
2023-04-28T12:44:36.140Z,23.30
2023-04-28T12:47:04.482Z,25.23
2023-04-28T12:49:31.285Z,29.20
2023-04-28T12:51:57.932Z,31.63
2023-04-28T12:54:24.568Z,26.63
2023-04-28T12:56:51.372Z,25.70
2023-04-28T12:59:17.935Z,25.23
2023-04-28T13:01:44.535Z,24.37
2023-04-28T13:04:12.642Z,27.43
2023-04-28T13:06:43.984Z,27.90
2023-04-28T13:09:12.207Z,23.73
2023-04-28T13:11:42.186Z,25.23
2023-04-28T13:14:09.262Z,27.97
2023-04-28T13:16:36.073Z,21.77
2023-04-28T13:19:04.111Z,20.73
2023-04-28T13:21:30.753Z,20.90
2023-04-28T13:23:57.330Z,15.37
2023-04-28T13:26:24.344Z,16.40
2023-04-28T13:28:51.971Z,16.70
2023-04-28T13:31:19.502Z,11.10
2023-04-28T13:33:46.209Z,12.90
2023-04-28T13:36:13.290Z,12.30
2023-04-28T13:38:39.971Z,10.47
2023-04-28T13:41:06.770Z,12.43
2023-04-28T13:43:33.434Z,14.23
2023-04-28T13:46:00.093Z,9.20
2023-04-28T13:48:27.645Z,9.27
2023-04-28T13:50:54.575Z,10.13
2023-04-28T13:53:21.608Z,9.70
2023-04-28T13:55:51.154Z,9.77
2023-04-28T13:58:17.753Z,10.03
2023-04-28T14:00:44.370Z,12.97
2023-04-28T14:03:11.455Z,11.40
2023-04-28T14:05:46.135Z,11.60
2023-04-28T14:08:18.237Z,9.53
2023-04-28T14:10:47.924Z,12.90
2023-04-28T14:13:15.370Z,11.87
2023-04-28T14:15:51.218Z,8.50
2023-04-28T14:18:24.353Z,8.70
2023-04-28T14:20:50.938Z,10.73
2023-04-28T14:23:17.568Z,9.33
2023-04-28T14:25:44.299Z,8.13
2023-04-28T14:28:11.544Z,8.23
2023-04-28T14:30:38.573Z,10.73
2023-04-28T14:33:05.692Z,7.17
2023-04-28T14:35:32.422Z,7.83
2023-04-28T14:37:59.162Z,7.50
2023-04-28T14:40:26.055Z,8.87
2023-04-28T14:42:52.977Z,6.70
2023-04-28T14:45:19.896Z,9.60
2023-04-28T14:47:47.324Z,9.20
2023-04-28T14:50:14.284Z,10.40
2023-04-28T14:52:42.414Z,9.47
2023-04-28T14:55:09.276Z,10.87
2023-04-28T14:57:37.528Z,9.30
2023-04-28T15:00:06.994Z,8.13
2023-04-28T15:02:34.246Z,8.67
2023-04-28T15:05:01.245Z,10.10
2023-04-28T15:07:31.235Z,9.03
2023-04-28T15:10:00.913Z,8.70
2023-04-28T15:12:30.186Z,9.03
2023-04-28T15:14:56.914Z,10.63
2023-04-28T15:17:23.712Z,11.67
2023-04-28T15:19:50.441Z,11.50
2023-04-28T15:22:17.327Z,13.87
2023-04-28T15:24:44.030Z,12.60
2023-04-28T15:27:10.765Z,12.93
2023-04-28T15:29:37.485Z,11.53
2023-04-28T15:32:04.862Z,10.73
2023-04-28T15:34:31.416Z,12.33
2023-04-28T15:36:58.031Z,13.53
2023-04-28T15:39:25.504Z,14.57
2023-04-28T15:41:56.336Z,8.87
2023-04-28T15:44:23.115Z,12.73
2023-04-28T15:46:51.637Z,13.90
2023-04-28T15:49:18.267Z,10.93
2023-04-28T15:51:45.037Z,9.80
2023-04-28T15:54:11.648Z,9.40
2023-04-28T15:56:38.287Z,9.17
2023-04-28T15:59:04.892Z,7.13
2023-04-28T16:01:31.489Z,12.43
2023-04-28T16:03:58.486Z,6.73
2023-04-28T16:06:25.501Z,8.00
2023-04-28T16:08:52.119Z,6.20
2023-04-28T16:11:20.246Z,5.77
2023-04-28T16:13:46.830Z,12.00
2023-04-28T16:16:13.466Z,7.77
2023-04-28T16:18:40.180Z,6.60
2023-04-28T16:21:06.838Z,6.17
2023-04-28T16:23:33.640Z,7.83
2023-04-28T16:26:00.561Z,8.27
2023-04-28T16:28:27.418Z,6.07
2023-04-28T16:30:54.105Z,6.27
2023-04-28T16:33:20.717Z,7.10
2023-04-28T16:39:35.142Z,6.63
2023-04-28T16:42:02.773Z,6.50
2023-04-28T16:44:30.510Z,6.23
2023-04-28T16:46:58.224Z,8.13
2023-04-28T16:49:25.012Z,5.30
2023-04-28T16:52:02.333Z,6.87
2023-04-28T16:54:29.761Z,6.90
2023-04-28T16:57:00.549Z,7.00
2023-04-28T16:59:30.127Z,8.13
2023-04-28T17:01:57.493Z,7.50
2023-04-28T17:04:25.029Z,6.73
2023-04-28T17:06:52.941Z,6.80
2023-04-28T17:09:21.082Z,7.87
2023-04-28T17:11:48.231Z,7.67
2023-04-28T17:14:14.934Z,6.33
2023-04-28T17:16:43.690Z,5.10
2023-04-28T17:19:11.261Z,4.00
2023-04-28T17:21:38.340Z,4.00
2023-04-28T17:24:05.155Z,5.30
2023-04-28T17:26:32.373Z,6.53
2023-04-28T17:28:59.782Z,5.63
2023-04-28T17:31:27.551Z,5.13
2023-04-28T17:33:56.317Z,4.50
2023-04-28T17:36:25.603Z,6.37
2023-04-28T17:38:52.350Z,4.50
2023-04-28T17:41:19.769Z,5.30
2023-04-28T17:43:46.742Z,4.50
2023-04-28T17:46:14.517Z,5.70
2023-04-28T17:48:42.262Z,4.63
2023-04-28T17:51:09.300Z,5.40
2023-04-28T17:53:37.025Z,3.23
2023-04-28T17:56:03.771Z,5.27
2023-04-28T17:58:32.523Z,5.13
2023-04-28T18:01:03.140Z,8.70
2023-04-28T18:03:30.860Z,5.57
2023-04-28T18:05:57.527Z,8.57
2023-04-28T18:08:24.148Z,5.30
2023-04-28T18:10:50.761Z,6.17
2023-04-28T18:13:17.340Z,6.70
2023-04-28T18:15:46.132Z,7.00
2023-04-28T18:18:14.371Z,9.23
2023-04-28T18:20:42.784Z,7.30
2023-04-28T18:23:09.900Z,8.00
2023-04-28T18:25:37.241Z,6.00
2023-04-28T18:28:04.978Z,10.30
2023-04-28T18:30:40.581Z,8.97
2023-04-28T18:33:08.154Z,8.17
2023-04-28T18:35:36.676Z,10.57
2023-04-28T18:38:04.988Z,8.40
2023-04-28T18:40:38.907Z,10.80
2023-04-28T18:43:06.619Z,7.27
2023-04-28T18:45:35.528Z,9.93
2023-04-28T18:48:03.895Z,8.50
2023-04-28T18:50:31.567Z,8.57
2023-04-28T18:53:00.273Z,9.50
2023-04-28T18:55:27.106Z,9.60
2023-04-28T18:57:53.745Z,11.17
2023-04-28T19:00:21.526Z,8.47
2023-04-28T19:02:48.304Z,10.63
2023-04-28T19:05:15.155Z,11.80
2023-04-28T19:07:42.002Z,10.93
2023-04-28T19:10:09.114Z,12.57
2023-04-28T19:12:36.121Z,10.00
2023-04-28T19:15:02.761Z,11.43
2023-04-28T19:17:30.280Z,12.80
2023-04-28T19:19:57.733Z,11.67
2023-04-28T19:22:37.775Z,13.00
2023-04-28T19:25:06.733Z,12.13
2023-04-28T19:27:38.713Z,14.20
2023-04-28T19:30:07.650Z,13.87
2023-04-28T19:32:34.902Z,17.67
2023-04-28T19:35:03.062Z,14.60
2023-04-28T19:37:31.320Z,14.60
2023-04-28T19:39:57.878Z,15.27
2023-04-28T19:42:24.512Z,17.90
2023-04-28T19:44:55.839Z,17.80
2023-04-28T19:47:31.356Z,17.40
2023-04-28T19:49:57.976Z,18.53
2023-04-28T19:52:24.554Z,18.13
2023-04-28T19:54:51.979Z,18.37
2023-04-28T19:57:19.711Z,18.43
2023-04-28T19:59:47.381Z,18.30
2023-04-28T20:02:14.288Z,20.00
2023-04-28T20:04:41.038Z,23.07
2023-04-28T20:07:08.445Z,21.47
2023-04-28T20:09:36.274Z,21.47
2023-04-28T20:12:05.383Z,21.27
2023-04-28T20:14:32.645Z,22.67
2023-04-28T20:17:01.528Z,24.90
2023-04-28T20:19:28.310Z,17.60
2023-04-28T20:21:54.884Z,19.97
2023-04-28T20:24:21.660Z,20.83
2023-04-28T20:26:51.747Z,17.40
2023-04-28T20:29:18.330Z,19.97
2023-04-28T20:31:44.937Z,15.83
2023-04-28T20:34:13.168Z,15.57
2023-04-28T20:36:41.910Z,14.93
2023-04-28T20:39:10.914Z,15.67
2023-04-28T20:41:38.328Z,14.27
2023-04-28T20:44:06.401Z,17.07
2023-04-28T20:46:33.286Z,15.10
2023-04-28T20:49:00.095Z,18.00
2023-04-28T20:51:28.822Z,14.00
2023-04-28T20:53:56.620Z,14.00
2023-04-28T20:56:23.248Z,13.87
2023-04-28T20:58:49.782Z,15.30
2023-04-28T21:01:16.458Z,14.10
2023-04-28T21:03:43.418Z,14.57
2023-04-28T21:06:10.094Z,15.43
2023-04-28T21:08:36.858Z,15.63
2023-04-28T21:11:03.554Z,16.57
2023-04-28T21:13:30.408Z,15.00
2023-04-28T21:15:56.995Z,17.00
2023-04-28T21:18:23.541Z,14.87
2023-04-28T21:20:51.035Z,14.80
2023-04-28T21:23:17.559Z,16.20
2023-04-28T21:25:44.122Z,18.47
2023-04-28T21:28:10.888Z,16.60
2023-04-28T21:30:37.701Z,17.53
2023-04-28T21:33:04.324Z,16.10
2023-04-28T21:35:31.200Z,11.43
2023-04-28T21:37:57.771Z,12.47
2023-04-28T21:40:24.435Z,13.00
2023-04-28T21:42:51.548Z,13.70
2023-04-28T21:45:18.107Z,13.33
2023-04-28T21:47:44.707Z,10.47
2023-04-28T21:50:11.529Z,11.70
2023-04-28T21:52:39.241Z,11.13
2023-04-28T21:55:06.386Z,13.43
2023-04-28T21:57:33.032Z,13.63
2023-04-28T21:59:59.591Z,13.60
2023-04-28T22:02:26.513Z,13.33
2023-04-28T22:04:54.145Z,13.93
2023-04-28T22:07:20.807Z,13.70
2023-04-28T22:09:47.431Z,13.40
2023-04-28T22:12:14.202Z,15.30
2023-04-28T22:14:41.582Z,16.43
2023-04-28T22:17:08.419Z,15.00
2023-04-28T22:19:34.993Z,16.23
2023-04-28T22:22:01.627Z,18.77
2023-04-28T22:24:28.327Z,15.07
2023-04-28T22:26:55.002Z,17.00
2023-04-28T22:29:22.072Z,23.50
2023-04-28T22:31:48.786Z,20.80
2023-04-28T22:34:16.677Z,21.60
2023-04-28T22:36:44.926Z,20.63
2023-04-28T22:39:12.202Z,20.33
2023-04-28T22:41:38.766Z,20.07
2023-04-28T22:44:05.453Z,22.03
2023-04-28T22:46:32.022Z,21.03
2023-04-28T22:48:58.817Z,20.13
2023-04-28T22:51:25.411Z,21.60
2023-04-28T22:53:54.127Z,21.50
2023-04-28T22:56:21.340Z,22.37
2023-04-28T22:58:47.956Z,22.37
2023-04-28T23:01:14.595Z,23.97
2023-04-28T23:03:41.381Z,26.53
2023-04-28T23:06:08.256Z,22.70
2023-04-28T23:08:35.494Z,25.87
2023-04-28T23:11:06.732Z,23.97
2023-04-28T23:13:33.342Z,27.07
2023-04-28T23:16:00.399Z,28.50
2023-04-28T23:18:31.912Z,27.23
2023-04-28T23:20:58.706Z,25.27
2023-04-28T23:23:25.450Z,27.40
2023-04-28T23:25:52.044Z,24.53
2023-04-28T23:28:18.886Z,28.73
2023-04-28T23:30:45.472Z,30.67
2023-04-28T23:33:12.026Z,29.90
2023-04-28T23:35:38.574Z,31.80
2023-04-28T23:38:05.109Z,30.17
2023-04-28T23:40:31.738Z,31.27
2023-04-28T23:42:58.265Z,29.47
2023-04-28T23:45:25.380Z,34.47
2023-04-28T23:47:53.194Z,32.20
2023-04-28T23:50:19.907Z,34.67
2023-04-28T23:52:47.015Z,35.40
2023-04-28T23:55:13.672Z,34.83
2023-04-28T23:57:40.560Z,37.00
